Time;durP1;ratioP1;P1;durP2;ratioP2;P2;SDS_P1;SDS_P2;PMS_P1;PMS_P2;Temp;Humidity;BMP_temperature;BMP_pressure;BME280_temperature;BME280_humidity;BME280_pressure;Samples;Min_cycle;Max_cycle;Signal;HPM_P1;HPM_P2
2023/01/02 00:00:23;;;;;;;;;;;;;;;26.29;41.91;94604.31;5035888;28;6993;-62
2023/01/02 00:02:51;;;;;;;;;;;;;;;26.29;41.14;94610.56;5044953;28;9072;-62
2023/01/02 00:05:56;;;;;;;;;;;;;;;26.30;41.26;94597.50;5054384;28;7694;-62
2023/01/02 00:08:22;;;;;;;;;;;;;;;26.28;41.28;94606.31;5033900;28;7025;-62
2023/01/02 00:10:48;;;;;;;;;;;;;;;26.29;41.96;94598.78;5034603;28;7012;-62
2023/01/02 00:13:17;;;;;;;;;;;;;;;26.29;41.91;94587.75;5041812;28;7065;-62
2023/01/02 00:15:49;;;;;;;;;;;;;;;26.27;42.00;94604.06;5043117;28;7293;-61
2023/01/02 00:18:23;;;;;;;;;;;;;;;26.27;41.87;94604.06;5038183;28;7072;-62
2023/01/02 00:20:50;;;;;;;;;;;;;;;26.27;41.60;94601.31;5040379;28;7034;-61
2023/01/02 00:23:18;;;;;;;;;;;;;;;26.28;41.66;94600.03;5049903;28;7736;-62
2023/01/02 00:25:44;;;;;;;;;;;;;;;26.29;41.51;94612.56;5045837;28;7031;-62
2023/01/02 00:28:10;;;;;;;;;;;;;;;26.27;41.52;94602.06;5036061;28;7268;-61
2023/01/02 00:30:37;;;;;;;;;;;;;;;26.29;41.87;94601.53;5030411;28;7732;-63
2023/01/02 00:33:06;;;;;;;;;;;;;;;26.28;41.71;94600.03;5049595;28;9271;-62
2023/01/02 00:35:42;;;;;;;;;;;;;;;26.29;41.84;94610.56;5038786;28;9084;-62
2023/01/02 00:38:19;;;;;;;;;;;;;;;26.28;41.20;94600.03;5043820;28;7289;-62
2023/01/02 00:40:46;;;;;;;;;;;;;;;26.29;41.79;94615.34;5049003;28;7119;-62
2023/01/02 00:43:13;;;;;;;;;;;;;;;26.28;41.45;94611.06;5033638;28;9584;-62
2023/01/02 00:45:52;;;;;;;;;;;;;;;26.27;41.92;94615.84;5037921;28;7342;-62
2023/01/02 00:48:44;;;;;;;;;;;;;;;26.27;41.16;94601.31;5048316;28;9394;-62
2023/01/02 00:51:19;;;;;;;;;;;;;;;26.26;41.81;94606.06;4990593;28;9040;-62
2023/01/02 00:53:45;;;;;;;;;;;;;;;26.28;41.88;94600.03;4982807;28;7058;-62
2023/01/02 00:56:10;;;;;;;;;;;;;;;26.27;41.54;94590.28;4991256;28;7263;-61
2023/01/02 00:58:45;;;;;;;;;;;;;;;26.29;41.23;94585.00;4976321;28;9443;-62
2023/01/02 01:02:05;;;;;;;;;;;;;;;26.29;41.62;94587.75;4982865;28;8855;-62
2023/01/02 01:04:34;;;;;;;;;;;;;;;26.28;41.67;94584.25;4953028;28;7466;-62
2023/01/02 01:07:09;;;;;;;;;;;;;;;26.27;41.37;94590.28;4951808;28;9742;-62
2023/01/02 01:09:38;;;;;;;;;;;;;;;26.27;41.26;94590.28;4952865;28;7020;-62
2023/01/02 01:12:04;;;;;;;;;;;;;;;26.26;41.13;94584.00;4951319;28;7271;-63
2023/01/02 01:14:32;;;;;;;;;;;;;;;26.27;41.35;94582.00;4936819;28;10595;-62
2023/01/02 01:17:01;;;;;;;;;;;;;;;26.27;41.59;94574.50;4928640;28;7378;-61
2023/01/02 01:19:38;;;;;;;;;;;;;;;26.28;42.11;94580.72;4927611;28;7302;-62
2023/01/02 01:22:53;;;;;;;;;;;;;;;26.27;41.68;94582.75;4938899;28;7007;-62
2023/01/02 01:25:22;;;;;;;;;;;;;;;26.25;41.96;94579.75;4842688;29;7719;-62
2023/01/02 01:28:09;;;;;;;;;;;;;;;26.24;41.38;94583.78;4858413;29;9185;-62
2023/01/02 01:31:06;;;;;;;;;;;;;;;26.21;42.01;94586.81;4872659;29;7336;-61
2023/01/02 01:33:43;;;;;;;;;;;;;;;26.22;41.87;94588.28;4896310;29;8814;-63
2023/01/02 01:36:15;;;;;;;;;;;;;;;26.21;41.48;94581.28;4879433;29;7267;-62
2023/01/02 01:38:52;;;;;;;;;;;;;;;26.23;41.64;94581.53;4921039;28;7579;-63
2023/01/02 01:41:25;;;;;;;;;;;;;;;26.24;41.87;94580.25;4930800;28;7087;-62
2023/01/02 01:44:00;;;;;;;;;;;;;;;26.24;41.62;94586.53;4935250;28;7087;-63
2023/01/02 01:47:08;;;;;;;;;;;;;;;26.24;41.81;94588.53;4934482;28;9471;-61
2023/01/02 01:49:50;;;;;;;;;;;;;;;26.24;41.63;94578.25;4933449;28;7528;-63
2023/01/02 01:52:30;;;;;;;;;;;;;;;26.25;41.11;94576.25;4939282;28;7158;-62
2023/01/02 01:55:11;;;;;;;;;;;;;;;26.24;41.62;94577.50;4948252;28;8659;-63
2023/01/02 01:58:16;;;;;;;;;;;;;;;26.24;41.87;94571.97;4934559;28;9130;-61
2023/01/02 02:01:11;;;;;;;;;;;;;;;26.24;42.02;94569.22;4943810;28;7357;-62
2023/01/02 02:03:44;;;;;;;;;;;;;;;26.24;41.46;94571.97;5027599;28;9475;-63
2023/01/02 02:06:14;;;;;;;;;;;;;;;26.23;41.77;94565.72;5029015;28;9287;-60
2023/01/02 02:09:00;;;;;;;;;;;;;;;26.22;41.55;94571.75;5000581;28;10530;-62
2023/01/02 02:11:27;;;;;;;;;;;;;;;26.23;41.91;94559.47;5020612;28;9009;-61
2023/01/02 02:14:01;;;;;;;;;;;;;;;26.23;41.76;94573.25;5024511;28;9131;-61
2023/01/02 02:17:03;;;;;;;;;;;;;;;26.22;42.04;94574.50;5030107;28;7007;-62
2023/01/02 02:19:53;;;;;;;;;;;;;;;26.22;41.20;94555.22;4937141;29;9147;-62
2023/01/02 02:22:37;;;;;;;;;;;;;;;26.21;41.20;94573.75;4938908;28;9523;-62
2023/01/02 02:25:49;;;;;;;;;;;;;;;26.22;41.97;94557.97;4951264;29;6984;-61
2023/01/02 02:29:01;;;;;;;;;;;;;;;26.20;41.68;94566.00;4927453;29;7291;-61
2023/01/02 02:31:38;;;;;;;;;;;;;;;26.21;41.68;94570.28;4951253;29;9383;-62
2023/01/02 02:34:27;;;;;;;;;;;;;;;26.22;41.86;94555.97;4945878;29;9039;-61
2023/01/02 02:36:57;;;;;;;;;;;;;;;26.22;41.66;94555.22;4950287;29;7301;-62
2023/01/02 02:39:53;;;;;;;;;;;;;;;26.22;41.58;94564.22;4953393;28;7375;-62
2023/01/02 02:42:43;;;;;;;;;;;;;;;26.20;41.95;94554.97;4962814;28;9104;-62
2023/01/02 02:45:31;;;;;;;;;;;;;;;26.20;41.50;94544.69;4964788;28;8884;-62
2023/01/02 02:48:19;;;;;;;;;;;;;;;26.22;41.24;94541.41;4953340;28;9113;-62
2023/01/02 02:51:09;;;;;;;;;;;;;;;26.22;41.29;94546.94;4972357;28;7311;-62
2023/01/02 02:53:54;;;;;;;;;;;;;;;26.20;41.16;94538.44;4965092;28;7563;-62
2023/01/02 02:56:32;;;;;;;;;;;;;;;26.20;41.46;94538.44;5018858;28;9169;-62
2023/01/02 02:59:03;;;;;;;;;;;;;;;26.20;41.24;94533.66;5043324;28;7147;-62
2023/01/02 03:01:30;;;;;;;;;;;;;;;26.20;41.14;94536.44;5039901;28;9236;-62
2023/01/02 03:03:57;;;;;;;;;;;;;;;26.22;41.76;94538.66;5052272;28;7218;-61
2023/01/02 03:07:07;;;;;;;;;;;;;;;26.22;41.28;94535.91;5050589;28;7070;-62
2023/01/02 03:10:15;;;;;;;;;;;;;;;26.22;41.81;94541.41;5047354;28;7362;-62
2023/01/02 03:12:59;;;;;;;;;;;;;;;26.20;41.12;94532.91;4974261;28;7639;-61
2023/01/02 03:15:33;;;;;;;;;;;;;;;26.21;41.95;94523.41;4974352;28;7040;-61
2023/01/02 03:18:14;;;;;;;;;;;;;;;26.20;41.28;94530.16;4972603;28;7243;-60
2023/01/02 03:21:33;;;;;;;;;;;;;;;26.20;41.26;94517.13;4973644;28;7272;-61
2023/01/02 03:24:23;;;;;;;;;;;;;;;26.20;41.90;94527.41;4906215;29;7947;-62
2023/01/02 03:27:23;;;;;;;;;;;;;;;26.20;41.75;94522.63;4916738;29;7445;-61
2023/01/02 03:30:16;;;;;;;;;;;;;;;26.22;41.47;94519.38;4896513;29;7262;-62
2023/01/02 03:33:16;;;;;;;;;;;;;;;26.20;41.66;94514.38;4916525;29;9044;-62
2023/01/02 03:36:07;;;;;;;;;;;;;;;26.22;41.40;94513.84;4787924;29;7420;-60
2023/01/02 03:38:46;;;;;;;;;;;;;;;26.21;41.12;94512.38;4789666;29;8950;-61
2023/01/02 03:41:24;;;;;;;;;;;;;;;26.19;41.75;94515.63;4796396;29;7150;-62
2023/01/02 03:43:57;;;;;;;;;;;;;;;26.19;41.42;94523.16;4805204;29;7208;-61
2023/01/02 03:46:33;;;;;;;;;;;;;;;26.21;41.32;94517.88;4793963;29;9345;-62
2023/01/02 03:49:11;;;;;;;;;;;;;;;26.20;41.16;94513.63;4817717;29;9414;-62
2023/01/02 03:51:48;;;;;;;;;;;;;;;26.18;41.59;94511.38;4840090;29;6987;-61
2023/01/02 03:54:19;;;;;;;;;;;;;;;26.17;41.31;94507.88;4826555;29;7138;-62
2023/01/02 03:57:09;;;;;;;;;;;;;;;26.19;41.70;94509.38;4843145;29;7035;-61
2023/01/02 03:59:49;;;;;;;;;;;;;;;26.16;41.82;94500.84;4862656;29;8379;-61
2023/01/02 04:02:55;;;;;;;;;;;;;;;26.15;41.93;94504.88;4884213;29;7058;-61
2023/01/02 04:05:31;;;;;;;;;;;;;;;26.15;41.54;94504.88;4893331;29;7909;-62
2023/01/02 04:08:03;;;;;;;;;;;;;;;26.18;41.59;94514.13;4932707;29;9608;-61
2023/01/02 04:10:30;;;;;;;;;;;;;;;26.15;41.76;94504.88;4932168;29;9471;-62
2023/01/02 04:13:02;;;;;;;;;;;;;;;26.16;41.82;94500.13;5000880;28;7275;-62
2023/01/02 04:15:35;;;;;;;;;;;;;;;26.18;41.23;94500.34;5004594;28;7423;-63
2023/01/02 04:18:10;;;;;;;;;;;;;;;26.16;41.63;94500.13;5010936;28;9139;-61
2023/01/02 04:20:45;;;;;;;;;;;;;;;26.16;41.62;94494.59;4995404;28;7160;-61
2023/01/02 04:23:19;;;;;;;;;;;;;;;26.16;41.36;94500.13;5001979;28;7128;-62
2023/01/02 04:25:55;;;;;;;;;;;;;;;26.14;41.50;94497.13;5003044;28;8477;-61
2023/01/02 04:28:30;;;;;;;;;;;;;;;26.15;41.17;94493.84;5010482;28;9018;-61
2023/01/02 04:31:09;;;;;;;;;;;;;;;26.14;41.20;94494.38;5002151;28;7164;-62
2023/01/02 04:33:55;;;;;;;;;;;;;;;26.12;41.25;94489.34;5008978;28;7463;-61
2023/01/02 04:36:47;;;;;;;;;;;;;;;26.14;41.57;94488.84;5016928;28;7273;-62
2023/01/02 04:39:47;;;;;;;;;;;;;;;26.15;41.29;94490.34;5029088;28;7358;-61
2023/01/02 04:42:14;;;;;;;;;;;;;;;26.12;41.51;94486.59;5019753;28;7966;-62
2023/01/02 04:44:49;;;;;;;;;;;;;;;26.11;41.51;94487.13;5031155;28;7930;-62
2023/01/02 04:48:00;;;;;;;;;;;;;;;26.14;41.18;94497.13;5020229;28;7141;-62
2023/01/02 04:50:41;;;;;;;;;;;;;;;26.12;41.11;94508.66;5009109;28;9132;-60
2023/01/02 04:53:08;;;;;;;;;;;;;;;26.13;41.10;94501.88;4987466;28;7131;-62
2023/01/02 04:55:45;;;;;;;;;;;;;;;26.14;41.96;94500.59;5011483;28;9078;-60
2023/01/02 04:59:02;;;;;;;;;;;;;;;26.12;41.38;94489.34;5009581;28;7585;-62
2023/01/02 05:01:39;;;;;;;;;;;;;;;26.11;42.10;94507.16;4949696;28;9351;-61
2023/01/02 05:04:06;;;;;;;;;;;;;;;26.11;41.73;94509.91;4925452;28;9165;-62
2023/01/02 05:06:45;;;;;;;;;;;;;;;26.11;41.48;94500.91;4933898;28;7316;-62
2023/01/02 05:09:16;;;;;;;;;;;;;;;26.09;41.89;94498.66;4946618;28;9732;-62
2023/01/02 05:11:42;;;;;;;;;;;;;;;26.09;42.21;94501.41;4939886;28;7939;-62
2023/01/02 05:14:13;;;;;;;;;;;;;;;26.05;41.44;94497.41;4927591;28;9712;-62
2023/01/02 05:16:39;;;;;;;;;;;;;;;26.08;41.36;94504.63;4942514;28;9068;-62
2023/01/02 05:19:15;;;;;;;;;;;;;;;26.08;41.25;94504.63;4924842;28;7254;-62
2023/01/02 05:24:43;;;;;;;;;;;;;;;26.09;41.88;94512.44;4949953;28;7340;-62
2023/01/02 05:27:25;;;;;;;;;;;;;;;26.11;41.87;94515.44;4932906;28;7275;-61
2023/01/02 05:29:53;;;;;;;;;;;;;;;26.10;41.68;94508.41;4988947;28;9032;-63
2023/01/02 05:32:30;;;;;;;;;;;;;;;26.10;41.55;94513.91;4968160;28;9403;-62
2023/01/02 05:35:31;;;;;;;;;;;;;;;26.09;41.60;94517.94;4975442;28;7173;-63
2023/01/02 05:38:31;;;;;;;;;;;;;;;26.13;41.25;94521.19;4930514;28;7015;-62
2023/01/02 05:41:15;;;;;;;;;;;;;;;26.13;41.58;94517.66;4957627;28;7267;-62
2023/01/02 05:43:47;;;;;;;;;;;;;;;26.11;41.33;94515.44;4960828;28;10159;-62
2023/01/02 05:46:17;;;;;;;;;;;;;;;26.13;41.63;94518.41;4967621;28;7279;-62
2023/01/02 05:48:45;;;;;;;;;;;;;;;26.12;41.26;94514.16;4971850;28;9015;-62
2023/01/02 05:51:42;;;;;;;;;;;;;;;26.13;41.07;94512.16;4946040;28;7263;-62
2023/01/02 05:54:08;;;;;;;;;;;;;;;26.12;41.54;94516.91;4904634;29;7667;-61
2023/01/02 05:56:53;;;;;;;;;;;;;;;26.12;41.03;94524.47;4926828;29;7060;-63
2023/01/02 05:59:36;;;;;;;;;;;;;;;26.11;41.86;94515.44;4933023;29;9314;-62
2023/01/02 06:02:12;;;;;;;;;;;;;;;26.10;41.54;94508.41;4926833;29;7402;-63
2023/01/02 06:04:48;;;;;;;;;;;;;;;26.10;41.33;94522.19;4925806;29;9054;-62
2023/01/02 06:07:19;;;;;;;;;;;;;;;26.10;42.03;94519.44;4925841;29;7420;-62
2023/01/02 06:09:51;;;;;;;;;;;;;;;26.09;41.10;94523.47;4908246;29;7633;-62
2023/01/02 06:12:16;;;;;;;;;;;;;;;26.08;41.73;94530.22;4916889;29;7248;-63
2023/01/02 06:14:43;;;;;;;;;;;;;;;26.08;41.51;94526.69;4968732;28;9306;-62
2023/01/02 06:17:14;;;;;;;;;;;;;;;26.10;41.38;94535.97;4969273;28;7336;-62
2023/01/02 06:19:42;;;;;;;;;;;;;;;26.09;41.78;94525.47;4988208;28;7282;-61
2023/01/02 06:22:09;;;;;;;;;;;;;;;26.08;42.27;94519.19;4984926;28;7099;-62
2023/01/02 06:24:35;;;;;;;;;;;;;;;26.08;42.08;94526.69;4989882;28;7191;-61
2023/01/02 06:27:00;;;;;;;;;;;;;;;26.10;41.65;94524.19;4988738;28;8573;-61
2023/01/02 06:29:26;;;;;;;;;;;;;;;26.09;41.66;94523.47;4990677;28;7936;-60
2023/01/02 06:31:53;;;;;;;;;;;;;;;26.08;41.97;94526.69;5061650;28;7323;-62
2023/01/02 06:34:22;;;;;;;;;;;;;;;26.08;41.25;94526.69;5044131;28;8649;-61
2023/01/02 06:37:09;;;;;;;;;;;;;;;26.08;41.59;94516.44;5044844;28;7445;-63
2023/01/02 06:39:46;;;;;;;;;;;;;;;26.09;41.56;94530.97;5039040;28;8966;-62
2023/01/02 06:42:14;;;;;;;;;;;;;;;26.08;41.55;94530.22;5053092;28;7338;-62
2023/01/02 06:44:42;;;;;;;;;;;;;;;26.06;41.64;94532.72;5049729;28;7167;-63
2023/01/02 06:47:39;;;;;;;;;;;;;;;26.12;42.05;94532.72;5051457;28;7319;-63
2023/01/02 06:50:21;;;;;;;;;;;;;;;26.13;41.52;94529.44;4956453;28;7210;-62
2023/01/02 06:53:12;;;;;;;;;;;;;;;26.16;40.95;94531.16;4939395;28;7272;-63
2023/01/02 06:56:15;;;;;;;;;;;;;;;26.17;41.68;94540.94;4967646;28;8467;-62
2023/01/02 06:58:54;;;;;;;;;;;;;;;26.15;41.77;94548.97;4869089;29;7012;-62
2023/01/02 07:01:56;;;;;;;;;;;;;;;26.15;41.17;94545.47;4877185;29;7397;-61
2023/01/02 07:04:31;;;;;;;;;;;;;;;26.13;41.08;94542.47;4840217;29;9460;-62
2023/01/02 07:07:10;;;;;;;;;;;;;;;26.16;41.46;94547.72;4826796;29;7373;-61
2023/01/02 07:09:36;;;;;;;;;;;;;;;26.19;41.65;94542.47;4825220;29;8578;-61
2023/01/02 07:12:02;;;;;;;;;;;;;;;26.19;41.23;94561.75;4825871;29;7353;-60
2023/01/02 07:14:27;;;;;;;;;;;;;;;26.16;41.79;94566.28;4822016;29;9081;-62
2023/01/02 07:17:03;;;;;;;;;;;;;;;26.14;41.40;94547.47;4821058;29;7116;-61
2023/01/02 07:19:42;;;;;;;;;;;;;;;26.07;41.97;94553.53;4845299;29;7269;-62
2023/01/02 07:22:09;;;;;;;;;;;;;;;26.06;41.16;94554.78;4827244;29;7689;-62
2023/01/02 07:24:38;;;;;;;;;;;;;;;26.05;42.21;94566.31;4823638;29;7083;-62
2023/01/02 07:27:07;;;;;;;;;;;;;;;26.02;41.44;94559.06;4902011;29;9368;-61
2023/01/02 07:29:33;;;;;;;;;;;;;;;26.04;41.79;94553.78;4919269;29;7366;-61
2023/01/02 07:32:02;;;;;;;;;;;;;;;26.08;41.41;94571.56;4926840;28;7097;-62
2023/01/02 07:34:37;;;;;;;;;;;;;;;26.06;41.66;94568.56;4965366;28;7281;-62
2023/01/02 07:37:03;;;;;;;;;;;;;;;26.03;41.39;94566.81;4966933;28;7930;-62
2023/01/02 07:39:30;;;;;;;;;;;;;;;26.04;41.43;94568.31;5032975;28;7142;-62
2023/01/02 07:42:00;;;;;;;;;;;;;;;26.04;41.55;94571.06;5043699;28;7281;-62
2023/01/02 07:44:39;;;;;;;;;;;;;;;26.03;41.98;94575.06;5041779;28;7087;-62
2023/01/02 07:47:14;;;;;;;;;;;;;;;26.00;41.44;94580.88;5040680;28;7006;-62
2023/01/02 07:49:42;;;;;;;;;;;;;;;25.99;41.32;94580.09;5040730;28;9434;-63
2023/01/02 07:52:41;;;;;;;;;;;;;;;26.00;41.49;94578.88;5049461;28;7222;-62
2023/01/02 07:55:12;;;;;;;;;;;;;;;26.01;42.55;94588.63;4952731;28;8675;-62
2023/01/02 07:57:45;;;;;;;;;;;;;;;26.01;42.43;94596.88;4932920;28;7370;-63
2023/01/02 08:00:26;;;;;;;;;;;;;;;26.01;41.86;94598.91;4942517;28;8455;-63
2023/01/02 08:03:24;;;;;;;;;;;;;;;26.02;42.52;94603.16;4930683;28;8186;-63
2023/01/02 08:06:10;;;;;;;;;;;;;;;26.02;42.97;94594.88;4948898;28;7702;-62
2023/01/02 08:08:38;;;;;;;;;;;;;;;25.99;42.04;94596.66;4950806;28;7021;-63
2023/01/02 08:11:07;;;;;;;;;;;;;;;25.98;42.28;94600.69;4950996;28;8942;-62
2023/01/02 08:14:19;;;;;;;;;;;;;;;26.00;42.53;94603.66;4938662;28;7340;-63
2023/01/02 08:17:06;;;;;;;;;;;;;;;26.01;41.95;94602.41;4876881;29;7341;-62
2023/01/02 08:19:46;;;;;;;;;;;;;;;26.01;42.42;94609.94;4878897;29;9297;-63
2023/01/02 08:22:42;;;;;;;;;;;;;;;26.02;41.95;94609.41;4870075;29;7274;-63
2023/01/02 08:25:10;;;;;;;;;;;;;;;26.01;42.11;94601.66;4840156;29;7284;-62
2023/01/02 08:27:46;;;;;;;;;;;;;;;25.99;42.43;94612.47;4840790;29;7336;-62
2023/01/02 08:30:42;;;;;;;;;;;;;;;26.01;42.81;94612.69;4859151;29;7104;-63
2023/01/02 08:33:19;;;;;;;;;;;;;;;26.01;42.04;94618.94;4907428;29;8398;-63
2023/01/02 08:36:00;;;;;;;;;;;;;;;26.00;42.09;94617.44;4914862;29;7296;-63
2023/01/02 08:38:27;;;;;;;;;;;;;;;26.00;42.24;94625.72;4914425;29;7202;-64
2023/01/02 08:40:59;;;;;;;;;;;;;;;25.98;42.73;94625.47;4896106;29;7219;-63
2023/01/02 08:43:27;;;;;;;;;;;;;;;25.99;42.77;94643.50;4914616;29;9351;-61
2023/01/02 08:46:37;;;;;;;;;;;;;;;26.01;42.68;94624.44;4897015;29;7251;-62
2023/01/02 08:49:04;;;;;;;;;;;;;;;25.99;42.45;94634.50;4823584;29;7045;-62
2023/01/02 08:51:39;;;;;;;;;;;;;;;25.99;42.67;94626.97;4824494;29;9827;-61
2023/01/02 08:54:05;;;;;;;;;;;;;;;25.99;42.59;94631.75;4879791;29;7222;-63
2023/01/02 08:56:34;;;;;;;;;;;;;;;25.98;42.50;94633.75;4930573;29;7248;-62
2023/01/02 08:59:11;;;;;;;;;;;;;;;26.00;42.20;94641.50;4908658;29;7214;-62
2023/01/02 09:01:48;;;;;;;;;;;;;;;26.00;42.22;94647.78;4945744;28;9560;-63
2023/01/02 09:04:28;;;;;;;;;;;;;;;26.00;42.72;94642.25;4938950;28;7119;-61
2023/01/02 09:06:55;;;;;;;;;;;;;;;25.99;42.62;94645.53;4957401;28;7245;-63
2023/01/02 09:09:21;;;;;;;;;;;;;;;26.00;42.65;94644.25;4940966;28;7020;-62
2023/01/02 09:11:49;;;;;;;;;;;;;;;26.00;42.81;94652.53;4955201;28;7176;-62
2023/01/02 09:14:26;;;;;;;;;;;;;;;25.99;42.21;94651.78;4962252;28;7350;-62
2023/01/02 09:20:48;;;;;;;;;;;;;;;26.03;41.96;94666.03;4957656;28;7054;-62
2023/01/02 09:23:22;;;;;;;;;;;;;;;26.02;42.82;94661.78;4950352;28;7039;-62
2023/01/02 09:25:51;;;;;;;;;;;;;;;26.02;42.40;94661.78;4989179;28;9614;-62
2023/01/02 09:28:23;;;;;;;;;;;;;;;26.02;42.38;94667.31;5035660;28;7646;-63
2023/01/02 09:31:04;;;;;;;;;;;;;;;26.01;42.46;94676.81;5049835;28;7239;-61
2023/01/02 09:33:30;;;;;;;;;;;;;;;26.02;42.70;94683.84;5046147;28;7051;-62
2023/01/02 09:36:03;;;;;;;;;;;;;;;26.01;42.50;94687.84;5037802;28;7250;-63
2023/01/02 09:38:35;;;;;;;;;;;;;;;26.02;42.73;94677.56;5042359;28;7307;-62
2023/01/02 09:41:40;;;;;;;;;;;;;;;26.04;42.33;94680.56;5044178;28;7609;-62
2023/01/02 09:44:25;;;;;;;;;;;;;;;26.03;42.88;94684.59;4989276;28;7229;-63
2023/01/02 09:47:10;;;;;;;;;;;;;;;26.02;42.70;94683.84;4991450;28;9264;-63
2023/01/02 09:50:15;;;;;;;;;;;;;;;26.02;42.65;94689.34;4999992;28;9388;-62
2023/01/02 09:53:17;;;;;;;;;;;;;;;26.02;42.92;94683.84;4909338;29;9152;-62
2023/01/02 09:56:38;;;;;;;;;;;;;;;26.03;42.01;94682.56;4819478;29;9426;-63
2023/01/02 09:59:48;;;;;;;;;;;;;;;26.01;42.12;94682.31;4815732;29;7226;-62
2023/01/02 10:02:55;;;;;;;;;;;;;;;26.01;43.11;94682.31;4819626;29;7258;-62
2023/01/02 10:05:40;;;;;;;;;;;;;;;26.01;42.16;94682.31;4798405;29;8227;-63
2023/01/02 10:08:14;;;;;;;;;;;;;;;26.04;42.56;94670.31;4811226;29;9118;-61
2023/01/02 10:10:47;;;;;;;;;;;;;;;26.03;42.15;94668.06;4803504;29;7304;-62
2023/01/02 10:13:26;;;;;;;;;;;;;;;26.02;42.02;94664.53;4802135;29;7780;-62
2023/01/02 10:15:54;;;;;;;;;;;;;;;26.03;42.62;94657.03;4815641;29;7358;-63
2023/01/02 10:18:34;;;;;;;;;;;;;;;26.05;42.79;94668.31;4841488;29;9026;-63
2023/01/02 10:21:11;;;;;;;;;;;;;;;26.07;42.22;94674.81;4856499;29;8992;-61
2023/01/02 10:24:11;;;;;;;;;;;;;;;26.05;42.78;94676.56;4847055;29;7925;-63
2023/01/02 10:26:52;;;;;;;;;;;;;;;26.04;43.07;94678.56;4851526;29;7240;-62
2023/01/02 10:29:41;;;;;;;;;;;;;;;26.06;42.34;94676.06;4968285;28;7346;-62
2023/01/02 10:32:26;;;;;;;;;;;;;;;26.07;42.52;94677.56;5040757;28;6969;-62
2023/01/02 10:35:05;;;;;;;;;;;;;;;26.06;42.86;94673.28;5042603;28;11213;-63
2023/01/02 10:37:42;;;;;;;;;;;;;;;26.06;42.77;94667.03;5033461;28;7028;-61
2023/01/02 10:40:23;;;;;;;;;;;;;;;26.06;42.49;94684.31;5034040;28;7296;-62
2023/01/02 10:43:19;;;;;;;;;;;;;;;26.07;43.00;94672.06;5046603;28;7065;-62
2023/01/02 10:49:36;;;;;;;;;;;;;;;26.08;42.30;94678.28;4980448;28;7187;-62
2023/01/02 10:52:21;;;;;;;;;;;;;;;26.07;42.47;94685.84;4970210;28;9322;-62
2023/01/02 10:55:02;;;;;;;;;;;;;;;26.09;42.37;94688.09;4972749;28;7052;-62
2023/01/02 10:57:50;;;;;;;;;;;;;;;26.06;42.46;94689.84;4958574;28;7080;-62
2023/01/02 11:00:35;;;;;;;;;;;;;;;26.09;42.97;94694.38;4980429;28;9812;-62
2023/01/02 11:03:24;;;;;;;;;;;;;;;26.09;42.77;94688.88;4964457;28;7266;-62
2023/01/02 11:06:21;;;;;;;;;;;;;;;26.12;42.18;94687.09;4958702;28;7280;-62
2023/01/02 11:08:56;;;;;;;;;;;;;;;26.12;42.21;94687.84;4984286;28;9456;-63
2023/01/02 11:11:24;;;;;;;;;;;;;;;26.12;42.52;94696.09;4984367;28;8255;-62
2023/01/02 11:14:13;;;;;;;;;;;;;;;26.14;42.64;94692.84;4984385;28;7836;-62
2023/01/02 11:17:16;;;;;;;;;;;;;;;26.14;42.12;94685.31;4985941;28;7036;-62
2023/01/02 11:19:53;;;;;;;;;;;;;;;26.15;42.27;94695.09;4964416;28;7280;-63
2023/01/02 11:22:38;;;;;;;;;;;;;;;26.16;42.29;94702.09;5022475;28;7450;-63
2023/01/02 11:25:21;;;;;;;;;;;;;;;26.13;42.51;94700.38;5051387;28;7123;-62
2023/01/02 11:28:17;;;;;;;;;;;;;;;26.15;42.68;94695.09;5043506;28;7034;-62
2023/01/02 11:30:52;;;;;;;;;;;;;;;26.13;42.74;94697.63;5034836;28;9383;-62
2023/01/02 11:33:42;;;;;;;;;;;;;;;26.13;42.28;94703.13;5046257;28;7833;-63
2023/01/02 11:36:17;;;;;;;;;;;;;;;26.11;42.85;94697.38;5043387;28;7589;-62
2023/01/02 11:38:55;;;;;;;;;;;;;;;26.10;42.71;94706.13;5050928;28;9031;-63
2023/01/02 11:44:46;;;;;;;;;;;;;;;26.13;42.74;94705.13;5010319;28;7071;-63
2023/01/02 11:47:57;;;;;;;;;;;;;;;26.15;43.00;94708.88;4986263;28;7026;-62
2023/01/02 11:50:30;;;;;;;;;;;;;;;26.16;42.13;94704.13;4990711;28;9452;-62
2023/01/02 11:53:12;;;;;;;;;;;;;;;26.14;42.92;94712.16;4986260;28;7044;-61
2023/01/02 11:56:06;;;;;;;;;;;;;;;26.14;43.04;94714.91;4989589;28;7802;-62
2023/01/02 11:59:11;;;;;;;;;;;;;;;26.16;42.10;94723.44;5007559;28;9258;-62
2023/01/02 12:01:57;;;;;;;;;;;;;;;26.13;42.75;94718.91;5002793;28;7361;-62
2023/01/02 12:04:23;;;;;;;;;;;;;;;26.13;42.25;94724.44;4993217;28;7581;-62
2023/01/02 12:07:17;;;;;;;;;;;;;;;26.14;42.62;94723.91;5000847;28;7148;-61
2023/01/02 12:10:07;;;;;;;;;;;;;;;26.16;41.91;94726.19;4998625;28;9799;-61
2023/01/02 12:13:00;;;;;;;;;;;;;;;26.19;42.97;94725.16;4981686;28;9110;-62
2023/01/02 12:15:38;;;;;;;;;;;;;;;26.19;41.96;94729.94;4977737;28;7276;-61
2023/01/02 12:18:33;;;;;;;;;;;;;;;26.17;42.72;94717.41;4978581;28;7467;-60
2023/01/02 12:21:48;;;;;;;;;;;;;;;26.16;42.67;94726.19;5027452;28;7129;-60
2023/01/02 12:24:41;;;;;;;;;;;;;;;26.17;41.99;94736.69;5040679;28;9137;-62
2023/01/02 12:27:19;;;;;;;;;;;;;;;26.19;42.17;94735.44;5043085;28;7255;-61
2023/01/02 12:30:09;;;;;;;;;;;;;;;26.22;42.33;94732.41;5054678;28;7029;-61
2023/01/02 12:33:26;;;;;;;;;;;;;;;26.24;42.36;94732.66;5035848;28;7028;-62
2023/01/02 12:36:12;;;;;;;;;;;;;;;26.27;42.19;94739.19;5045840;28;7297;-61
2023/01/02 12:39:09;;;;;;;;;;;;;;;26.27;41.54;94739.19;5055472;28;7421;-60
2023/01/02 12:42:18;;;;;;;;;;;;;;;26.28;42.25;94740.66;5042074;28;8579;-62
2023/01/02 12:45:03;;;;;;;;;;;;;;;26.26;41.57;94740.41;5040732;28;7307;-62
2023/01/02 12:47:56;;;;;;;;;;;;;;;26.30;41.52;94738.16;5037089;28;10538;-62
2023/01/02 12:53:56;;;;;;;;;;;;;;;26.30;42.26;94751.94;5034841;28;9693;-61
2023/01/02 12:57:18;;;;;;;;;;;;;;;26.29;41.66;94753.97;5043273;28;7155;-61
2023/01/02 12:59:57;;;;;;;;;;;;;;;26.26;41.91;94748.69;5058665;28;8671;-62
2023/01/02 13:06:31;;;;;;;;;;;;;;;26.27;42.24;94752.97;4968044;28;7029;-62
2023/01/02 13:09:09;;;;;;;;;;;;;;;26.28;42.00;94751.69;4962109;28;7461;-62
2023/01/02 13:11:51;;;;;;;;;;;;;;;26.27;42.60;94750.97;4956084;28;7780;-62
2023/01/02 13:14:26;;;;;;;;;;;;;;;26.29;42.32;94750.44;4962381;28;7604;-62
2023/01/02 13:17:13;;;;;;;;;;;;;;;26.29;41.75;94745.69;4954068;28;7278;-62
2023/01/02 13:19:55;;;;;;;;;;;;;;;26.27;42.05;94739.94;4969219;28;9345;-63
2023/01/02 13:23:04;;;;;;;;;;;;;;;26.27;42.31;94745.44;4948259;28;7756;-62
2023/01/02 13:25:50;;;;;;;;;;;;;;;26.27;41.96;94753.72;4954491;28;7195;-62
2023/01/02 13:28:30;;;;;;;;;;;;;;;26.28;42.37;94746.94;4952315;28;8397;-62
2023/01/02 13:31:33;;;;;;;;;;;;;;;26.27;42.32;94747.44;4967875;28;7786;-62
2023/01/02 13:34:30;;;;;;;;;;;;;;;26.28;41.96;94746.19;4953046;28;7446;-62
2023/01/02 13:37:29;;;;;;;;;;;;;;;26.28;41.96;94754.44;4962070;28;7450;-62
2023/01/02 13:40:32;;;;;;;;;;;;;;;26.26;41.94;94752.22;4887096;29;7306;-63
2023/01/02 13:43:16;;;;;;;;;;;;;;;26.26;43.11;94746.69;4930995;28;7843;-62
2023/01/02 13:45:49;;;;;;;;;;;;;;;26.24;42.86;94754.72;4945175;28;9756;-62
2023/01/02 13:48:54;;;;;;;;;;;;;;;26.28;42.65;94762.72;4951073;28;7070;-62
2023/01/02 13:51:33;;;;;;;;;;;;;;;26.25;42.17;94761.00;4963865;28;8922;-63
2023/01/02 13:54:19;;;;;;;;;;;;;;;26.26;42.56;94762.47;4969003;28;8443;-62
2023/01/02 13:57:41;;;;;;;;;;;;;;;26.26;42.12;94754.22;4951229;28;9398;-63
2023/01/02 14:00:32;;;;;;;;;;;;;;;26.26;42.66;94765.25;4911449;29;7451;-62
2023/01/02 14:03:33;;;;;;;;;;;;;;;26.28;41.96;94774.50;4913626;29;10220;-62
2023/01/02 14:06:35;;;;;;;;;;;;;;;26.28;41.72;94771.00;4902845;29;7035;-60
2023/01/02 14:09:04;;;;;;;;;;;;;;;26.25;41.30;94775.53;4909505;29;7386;-62
2023/01/02 14:11:42;;;;;;;;;;;;;;;26.27;41.63;94777.78;4891463;29;7042;-62
2023/01/02 14:14:35;;;;;;;;;;;;;;;26.28;41.50;94788.28;4909615;29;7321;-64
2023/01/02 14:17:38;;;;;;;;;;;;;;;26.29;40.27;94791.81;4982119;28;7294;-62
2023/01/02 14:20:35;;;;;;;;;;;;;;;26.28;40.28;94791.06;4967085;28;7246;-62
2023/01/02 14:23:28;;;;;;;;;;;;;;;26.25;40.03;94794.09;4911358;29;7610;-60
2023/01/02 14:26:25;;;;;;;;;;;;;;;26.24;40.46;94798.09;4912159;29;7104;-63
2023/01/02 14:29:25;;;;;;;;;;;;;;;26.25;39.99;94810.63;4911196;29;7540;-62
2023/01/02 14:32:21;;;;;;;;;;;;;;;26.24;39.20;94809.88;4859106;29;7194;-63
2023/01/02 14:34:53;;;;;;;;;;;;;;;26.17;38.86;94811.13;4884467;29;7536;-64